createdAt,value
2023-02-11T00:00:11.866Z,101533.55
2023-02-11T00:02:46.048Z,101528.85
2023-02-11T00:05:18.268Z,101530.42
2023-02-11T00:07:49.948Z,101527.83
2023-02-11T00:10:20.560Z,101526.70
2023-02-11T00:12:49.568Z,101530.77
2023-02-11T00:15:21.829Z,101523.89
2023-02-11T00:17:51.017Z,101520.23
2023-02-11T00:20:23.155Z,101527.70
2023-02-11T00:22:53.030Z,101530.36
2023-02-11T00:25:22.105Z,101532.72
2023-02-11T00:27:54.225Z,101530.83
2023-02-11T00:30:23.370Z,101529.10
2023-02-11T00:32:52.325Z,101534.21
2023-02-11T00:35:21.654Z,101535.27
2023-02-11T00:37:54.538Z,101534.42
2023-02-11T00:40:24.866Z,101529.41
2023-02-11T00:42:53.825Z,101521.31
2023-02-11T00:45:25.924Z,101519.36
2023-02-11T00:47:57.686Z,101515.73
2023-02-11T00:50:26.514Z,101519.26
2023-02-11T00:52:57.960Z,101516.91
2023-02-11T00:55:27.317Z,101516.41
2023-02-11T00:57:59.761Z,101517.07
2023-02-11T01:00:29.101Z,101514.87
2023-02-11T01:03:00.306Z,101507.93
2023-02-11T01:05:30.866Z,101502.38
2023-02-11T01:08:01.964Z,101503.93
2023-02-11T01:10:34.645Z,101504.58
2023-02-11T01:13:05.754Z,101508.55
2023-02-11T01:15:34.697Z,101512.00
2023-02-11T01:18:06.211Z,101515.02
2023-02-11T01:20:35.434Z,101514.25
2023-02-11T01:23:04.506Z,101513.05
2023-02-11T01:25:37.290Z,101517.31
2023-02-11T01:28:13.033Z,101520.26
2023-02-11T01:30:42.540Z,101515.23
2023-02-11T01:33:12.389Z,101519.35
2023-02-11T01:35:43.360Z,101513.10
2023-02-11T01:38:21.582Z,101514.36
2023-02-11T01:41:03.288Z,101517.45
2023-02-11T01:43:35.625Z,101521.20
2023-02-11T01:46:05.841Z,101515.98
2023-02-11T01:48:37.712Z,101515.75
2023-02-11T01:51:11.933Z,101511.34
2023-02-11T01:54:01.998Z,101504.21
2023-02-11T01:56:53.815Z,101495.98
2023-02-11T01:59:26.306Z,101498.31
2023-02-11T02:01:58.443Z,101493.69
2023-02-11T02:04:32.031Z,101494.48
2023-02-11T02:07:09.708Z,101490.84
2023-02-11T02:09:42.480Z,101491.67
2023-02-11T02:12:11.606Z,101487.59
2023-02-11T02:14:42.307Z,101483.64
2023-02-11T02:17:21.807Z,101483.44
2023-02-11T02:20:11.520Z,101484.00
2023-02-11T02:22:54.131Z,101481.73
2023-02-11T02:25:44.745Z,101472.27
2023-02-11T02:28:37.822Z,101476.98
2023-02-11T02:31:27.817Z,101479.48
2023-02-11T02:34:15.101Z,101477.36
2023-02-11T02:36:58.648Z,101477.34
2023-02-11T02:39:29.769Z,101476.67
2023-02-11T02:41:58.881Z,101476.71
2023-02-11T02:44:29.661Z,101474.02
2023-02-11T02:46:59.832Z,101474.85
2023-02-11T02:49:28.863Z,101471.27
2023-02-11T02:52:19.584Z,101477.05
2023-02-11T02:55:06.864Z,101475.73
2023-02-11T02:57:48.964Z,101471.06
2023-02-11T03:00:32.447Z,101472.40
2023-02-11T03:03:18.908Z,101472.15
2023-02-11T03:05:55.848Z,101471.16
2023-02-11T03:08:38.380Z,101476.56
2023-02-11T03:11:07.752Z,101472.42
2023-02-11T03:13:39.723Z,101472.92
2023-02-11T03:16:22.470Z,101473.37
2023-02-11T03:18:57.805Z,101472.94
2023-02-11T03:21:27.130Z,101475.03
2023-02-11T03:24:02.746Z,101476.16
2023-02-11T03:26:41.433Z,101467.00
2023-02-11T03:29:18.290Z,101460.57
2023-02-11T03:32:19.040Z,101458.00
2023-02-11T03:35:01.955Z,101453.98
2023-02-11T03:37:41.289Z,101451.77
2023-02-11T03:40:16.523Z,101452.39
2023-02-11T03:42:50.186Z,101448.30
2023-02-11T03:45:28.382Z,101442.91
2023-02-11T03:48:21.643Z,101438.23
2023-02-11T03:50:50.967Z,101440.92
2023-02-11T03:53:22.278Z,101434.04
2023-02-11T03:55:53.079Z,101430.64
2023-02-11T03:58:22.284Z,101420.55
2023-02-11T04:00:51.936Z,101415.09
2023-02-11T04:03:21.373Z,101413.50
2023-02-11T04:05:50.892Z,101410.45
2023-02-11T04:08:23.045Z,101408.67
2023-02-11T04:10:53.333Z,101408.46
2023-02-11T04:13:24.586Z,101401.89
2023-02-11T04:15:54.201Z,101399.54
2023-02-11T04:18:23.508Z,101397.73
2023-02-11T04:20:52.905Z,101395.88
2023-02-11T04:23:23.516Z,101397.48
2023-02-11T04:25:53.080Z,101402.23
2023-02-11T04:28:27.452Z,101404.67
2023-02-11T04:30:57.008Z,101402.81
2023-02-11T04:33:28.859Z,101398.48
2023-02-11T04:35:59.566Z,101397.45
2023-02-11T04:38:28.997Z,101391.73
2023-02-11T04:41:00.179Z,101392.38
2023-02-11T04:43:35.022Z,101389.25
2023-02-11T04:46:04.612Z,101383.38
2023-02-11T04:48:36.408Z,101380.93
2023-02-11T04:51:06.108Z,101376.23
2023-02-11T04:53:35.307Z,101368.58
2023-02-11T04:56:05.287Z,101365.45
2023-02-11T04:58:35.847Z,101364.77
2023-02-11T05:01:09.275Z,101358.63
2023-02-11T05:03:39.254Z,101353.00
2023-02-11T05:06:11.214Z,101355.38
2023-02-11T05:08:44.463Z,101352.77
2023-02-11T05:11:19.422Z,101351.17
2023-02-11T05:13:49.161Z,101352.96
2023-02-11T05:16:23.222Z,101352.70
2023-02-11T05:18:56.255Z,101354.95
2023-02-11T05:21:29.355Z,101352.23
2023-02-11T05:23:59.178Z,101348.30
2023-02-11T05:26:34.074Z,101353.54
2023-02-11T05:29:03.716Z,101355.07
2023-02-11T05:31:34.253Z,101353.08
2023-02-11T05:34:05.585Z,101352.31
2023-02-11T05:36:35.396Z,101352.37
2023-02-11T05:39:05.800Z,101355.51
2023-02-11T05:41:37.109Z,101349.42
2023-02-11T05:44:08.300Z,101344.23
2023-02-11T05:46:39.629Z,101347.85
2023-02-11T05:49:09.971Z,101351.50
2023-02-11T05:51:39.159Z,101347.55
2023-02-11T05:54:08.523Z,101346.67
2023-02-11T05:56:38.938Z,101343.27
2023-02-11T05:59:08.228Z,101340.01
2023-02-11T06:01:40.987Z,101339.56
2023-02-11T06:04:10.700Z,101333.73
2023-02-11T06:06:40.116Z,101326.43
2023-02-11T06:09:13.148Z,101318.59
2023-02-11T06:11:42.803Z,101308.39
2023-02-11T06:14:15.245Z,101303.52
2023-02-11T06:16:46.105Z,101298.04
2023-02-11T06:19:16.025Z,101297.15
2023-02-11T06:21:46.564Z,101293.79
2023-02-11T06:24:47.699Z,101293.86
2023-02-11T06:27:14.498Z,101289.27
2023-02-11T06:29:45.189Z,101293.08
2023-02-11T06:32:37.001Z,101286.94
2023-02-11T06:35:05.967Z,101289.23
2023-02-11T06:37:37.166Z,101289.80
2023-02-11T06:40:09.829Z,101285.02
2023-02-11T06:42:39.949Z,101277.15
2023-02-11T06:45:11.325Z,101271.64
2023-02-11T06:47:42.692Z,101266.67
2023-02-11T06:50:14.077Z,101259.80
2023-02-11T06:52:44.109Z,101256.48
2023-02-11T06:55:14.658Z,101251.58
2023-02-11T06:57:48.051Z,101246.00
2023-02-11T07:00:18.380Z,101241.03
2023-02-11T07:02:49.168Z,101240.64
2023-02-11T07:05:19.910Z,101240.77
2023-02-11T07:07:49.313Z,101234.23
2023-02-11T07:10:23.182Z,101230.54
2023-02-11T07:12:57.002Z,101225.41
2023-02-11T07:15:28.223Z,101227.63
2023-02-11T07:17:57.581Z,101229.34
2023-02-11T07:20:27.544Z,101228.02
2023-02-11T07:22:59.272Z,101230.25
2023-02-11T07:25:28.328Z,101229.30
2023-02-11T07:27:58.549Z,101224.89
2023-02-11T07:30:28.572Z,101227.02
2023-02-11T07:32:57.589Z,101225.00
2023-02-11T07:35:27.283Z,101220.92
2023-02-11T07:37:56.906Z,101224.08
2023-02-11T07:40:26.910Z,101226.58
2023-02-11T07:42:59.047Z,101230.28
2023-02-11T07:45:28.682Z,101228.68
2023-02-11T07:47:58.048Z,101222.91
2023-02-11T07:50:27.422Z,101221.89
2023-02-11T07:52:57.408Z,101223.45
2023-02-11T07:55:27.269Z,101214.90
2023-02-11T07:57:57.967Z,101204.59
2023-02-11T08:00:27.491Z,101193.67
2023-02-11T08:03:20.466Z,101191.90
2023-02-11T08:05:57.555Z,101179.09
2023-02-11T08:08:28.446Z,101175.96
2023-02-11T08:10:57.899Z,101173.66
2023-02-11T08:13:29.707Z,101169.19
2023-02-11T08:16:11.215Z,101167.59
2023-02-11T08:18:41.705Z,101164.71
2023-02-11T08:21:12.745Z,101163.46
2023-02-11T08:23:48.303Z,101158.20
2023-02-11T08:26:26.825Z,101159.29
2023-02-11T08:28:59.905Z,101152.80
2023-02-11T08:31:39.564Z,101144.99
2023-02-11T08:34:11.400Z,101147.94
2023-02-11T08:36:41.964Z,101145.92
2023-02-11T08:39:22.343Z,101148.26
2023-02-11T08:41:53.860Z,101144.90
2023-02-11T08:44:25.754Z,101144.50
2023-02-11T08:46:54.791Z,101143.70
2023-02-11T08:49:24.795Z,101142.08
2023-02-11T08:51:59.282Z,101137.90
2023-02-11T08:54:34.383Z,101130.04
2023-02-11T08:57:04.312Z,101136.44
2023-02-11T08:59:35.151Z,101127.30
2023-02-11T09:02:04.417Z,101124.13
2023-02-11T09:04:34.056Z,101119.82
2023-02-11T09:07:06.306Z,101116.11
2023-02-11T09:09:37.356Z,101113.75
2023-02-11T09:12:11.821Z,101114.63
2023-02-11T09:14:45.780Z,101114.43
2023-02-11T09:17:14.889Z,101109.84
2023-02-11T09:19:47.037Z,101094.53
2023-02-11T09:22:16.348Z,101088.49
2023-02-11T09:24:48.207Z,101081.09
2023-02-11T09:27:23.246Z,101070.59
2023-02-11T09:29:53.979Z,101062.05
2023-02-11T09:35:09.061Z,101057.56
2023-02-11T09:37:39.814Z,101054.92
2023-02-11T09:40:12.079Z,101051.02
2023-02-11T09:43:06.007Z,101052.27
2023-02-11T09:45:36.754Z,101050.63
2023-02-11T09:48:14.005Z,101051.42
2023-02-11T09:50:58.869Z,101046.04
2023-02-11T09:53:36.207Z,101042.18
2023-02-11T09:56:15.945Z,101040.39
2023-02-11T09:58:49.639Z,101031.59
2023-02-11T10:01:37.359Z,101024.45
2023-02-11T10:04:26.528Z,101014.25
2023-02-11T10:07:24.538Z,101011.48
2023-02-11T10:10:22.627Z,101006.45
2023-02-11T10:13:01.918Z,100999.91
2023-02-11T10:16:08.093Z,100996.30
2023-02-11T10:18:47.657Z,100991.56
2023-02-11T10:21:21.219Z,100987.25
2023-02-11T10:23:52.892Z,100974.66
2023-02-11T10:26:22.469Z,100970.69
2023-02-11T10:28:58.645Z,100960.99
2023-02-11T10:31:39.509Z,100958.29
2023-02-11T10:34:13.635Z,100954.23
2023-02-11T10:36:45.361Z,100950.62
2023-02-11T10:39:28.881Z,100948.16
2023-02-11T10:42:15.061Z,100946.45
2023-02-11T10:45:06.366Z,100942.27
2023-02-11T10:47:38.219Z,100934.20
2023-02-11T10:50:37.578Z,100930.41
2023-02-11T10:53:17.564Z,100926.27
2023-02-11T10:55:54.529Z,100921.02
2023-02-11T10:58:29.601Z,100919.78
2023-02-11T11:01:00.392Z,100908.77
2023-02-11T11:03:33.124Z,100906.42
2023-02-11T11:06:10.856Z,100901.19
2023-02-11T11:08:49.889Z,100894.09
2023-02-11T11:11:24.996Z,100885.27
2023-02-11T11:14:04.514Z,100869.13
2023-02-11T11:16:36.377Z,100862.09
2023-02-11T11:19:09.711Z,100862.65
2023-02-11T11:21:47.287Z,100859.21
2023-02-11T11:24:32.832Z,100849.60
2023-02-11T11:27:06.569Z,100845.27
2023-02-11T11:29:40.872Z,100842.54
2023-02-11T11:32:23.520Z,100835.91
2023-02-11T11:34:56.393Z,100827.85
2023-02-11T11:37:28.170Z,100813.25
2023-02-11T11:40:08.652Z,100812.87
2023-02-11T11:42:39.816Z,100806.45
2023-02-11T11:45:17.008Z,100804.12
2023-02-11T11:48:06.556Z,100809.33
2023-02-11T11:50:54.583Z,100807.02
2023-02-11T11:53:53.648Z,100790.67
2023-02-11T11:56:38.295Z,100785.67
2023-02-11T11:59:14.273Z,100774.10
2023-02-11T12:02:16.215Z,100762.28
2023-02-11T12:04:56.305Z,100758.16
2023-02-11T12:07:51.455Z,100758.09
2023-02-11T12:10:47.233Z,100749.31
2023-02-11T12:13:54.897Z,100742.64
2023-02-11T12:16:47.882Z,100730.70
2023-02-11T12:19:46.741Z,100720.39
2023-02-11T12:22:41.466Z,100717.90
2023-02-11T12:25:22.097Z,100715.80
2023-02-11T12:28:16.163Z,100712.63
2023-02-11T12:31:17.784Z,100697.53
2023-02-11T12:34:03.164Z,100696.34
2023-02-11T12:37:00.229Z,100688.83
2023-02-11T12:39:36.493Z,100681.45
2023-02-11T12:42:38.085Z,100677.98
2023-02-11T12:45:12.357Z,100670.70
2023-02-11T12:48:16.706Z,100667.42
2023-02-11T12:50:49.366Z,100663.98
2023-02-11T12:53:28.314Z,100674.10
2023-02-11T12:56:04.285Z,100661.63
2023-02-11T12:58:44.842Z,100665.34
2023-02-11T13:01:23.472Z,100665.15
2023-02-11T13:04:07.659Z,100661.73
2023-02-11T13:07:04.263Z,100652.55
2023-02-11T13:09:39.120Z,100650.14
2023-02-11T13:12:29.379Z,100642.64
2023-02-11T13:15:02.428Z,100632.48
2023-02-11T13:18:06.311Z,100623.21
2023-02-11T13:20:44.710Z,100617.12
2023-02-11T13:23:42.885Z,100609.27
2023-02-11T13:26:41.419Z,100597.70
2023-02-11T13:29:17.656Z,100595.00
2023-02-11T13:32:07.759Z,100591.02
2023-02-11T13:34:45.305Z,100581.02
2023-02-11T13:37:27.270Z,100576.92
2023-02-11T13:40:00.462Z,100564.70
2023-02-11T13:42:32.134Z,100565.34
2023-02-11T13:45:02.381Z,100554.45
2023-02-11T13:47:33.704Z,100551.70
2023-02-11T13:50:04.624Z,100545.05
2023-02-11T13:52:35.685Z,100544.48
2023-02-11T13:55:08.624Z,100540.18
2023-02-11T13:57:41.187Z,100542.20
2023-02-11T14:00:44.118Z,100541.88
2023-02-11T14:03:41.559Z,100542.25
2023-02-11T14:06:33.925Z,100542.98
2023-02-11T14:09:11.554Z,100547.38
2023-02-11T14:11:42.396Z,100547.90
2023-02-11T14:14:36.082Z,100542.55
2023-02-11T14:17:09.879Z,100536.81
2023-02-11T14:19:44.358Z,100537.63
2023-02-11T14:22:32.718Z,100530.13
2023-02-11T14:25:05.026Z,100526.34
2023-02-11T14:27:35.180Z,100524.48
2023-02-11T14:30:17.480Z,100515.30
2023-02-11T14:33:18.460Z,100507.76
2023-02-11T14:36:14.432Z,100505.58
2023-02-11T14:39:44.908Z,100498.71
2023-02-11T14:42:20.729Z,100480.92
2023-02-11T14:44:51.321Z,100480.00
2023-02-11T14:47:30.642Z,100470.90
2023-02-11T14:50:01.765Z,100464.98
2023-02-11T14:52:33.900Z,100461.88
2023-02-11T14:55:24.559Z,100457.52
2023-02-11T14:58:07.428Z,100460.77
2023-02-11T15:00:37.404Z,100458.76
2023-02-11T15:03:10.090Z,100453.88
2023-02-11T15:05:42.242Z,100457.50
2023-02-11T15:08:14.770Z,100444.50
2023-02-11T15:10:46.049Z,100439.91
2023-02-11T15:13:32.060Z,100431.94
2023-02-11T15:16:10.721Z,100439.23
2023-02-11T15:18:42.546Z,100436.02
2023-02-11T15:21:13.348Z,100440.13
2023-02-11T15:23:45.557Z,100440.07
2023-02-11T15:26:23.862Z,100440.37
2023-02-11T15:28:57.081Z,100442.52
2023-02-11T15:31:27.808Z,100446.38
2023-02-11T15:34:07.935Z,100442.40
2023-02-11T15:36:39.699Z,100438.10
2023-02-11T15:39:41.706Z,100436.73
2023-02-11T15:42:40.858Z,100430.71
2023-02-11T15:45:18.795Z,100425.23
2023-02-11T15:47:52.125Z,100423.58
2023-02-11T15:50:26.448Z,100425.16
2023-02-11T15:52:58.992Z,100426.55
2023-02-11T19:17:42.634Z,100245.56
2023-02-11T19:20:12.709Z,100228.09
2023-02-11T19:22:42.485Z,100222.66
2023-02-11T19:25:13.394Z,100223.09
2023-02-11T19:27:44.072Z,100219.08
2023-02-11T19:30:16.321Z,100220.82
2023-02-11T19:32:47.794Z,100217.20
2023-02-11T19:35:17.648Z,100207.34
2023-02-11T19:37:47.532Z,100207.56
2023-02-11T19:40:25.945Z,100209.12
2023-02-11T19:43:00.173Z,100200.83
2023-02-11T19:45:30.203Z,100192.85
2023-02-11T19:47:59.941Z,100201.04
2023-02-11T19:50:29.919Z,100194.30
2023-02-11T19:52:59.671Z,100195.36
2023-02-11T19:55:29.955Z,100194.29
2023-02-11T19:57:59.313Z,100190.20
2023-02-11T20:00:29.729Z,100186.27
2023-02-11T20:03:01.297Z,100180.26
2023-02-11T20:05:36.091Z,100181.20
2023-02-11T20:08:07.224Z,100176.33
2023-02-11T20:10:37.631Z,100177.50
2023-02-11T20:13:10.232Z,100177.31
2023-02-11T20:15:42.517Z,100172.58
2023-02-11T20:18:15.372Z,100168.52
2023-02-11T20:20:45.688Z,100163.45
2023-02-11T20:23:15.754Z,100153.09
2023-02-11T20:25:48.561Z,100155.09
2023-02-11T20:28:19.238Z,100157.05
2023-02-11T20:30:58.926Z,100148.48
2023-02-11T20:33:31.981Z,100147.63
2023-02-11T20:36:04.767Z,100152.67
2023-02-11T20:38:36.859Z,100152.89
2023-02-11T20:41:10.197Z,100154.92
2023-02-11T20:43:40.648Z,100146.87
2023-02-11T20:46:16.046Z,100149.08
2023-02-11T20:48:46.096Z,100156.91
2023-02-11T20:51:19.095Z,100146.93
2023-02-11T20:53:50.086Z,100150.02
2023-02-11T20:56:22.861Z,100152.46
2023-02-11T20:58:54.350Z,100148.79
2023-02-11T21:01:25.794Z,100145.41
2023-02-11T21:04:04.269Z,100150.92
2023-02-11T21:06:42.233Z,100143.23
2023-02-11T21:09:16.520Z,100144.23
2023-02-11T21:11:54.949Z,100146.48
2023-02-11T21:14:25.343Z,100143.78
2023-02-11T21:16:58.071Z,100145.43
2023-02-11T21:19:28.252Z,100145.70
2023-02-11T21:22:01.265Z,100137.73
2023-02-11T21:24:34.035Z,100141.02
2023-02-11T21:27:08.460Z,100130.10
2023-02-11T21:29:52.676Z,100123.91
2023-02-11T21:32:23.858Z,100129.55
2023-02-11T21:34:55.968Z,100125.42
2023-02-11T21:37:25.583Z,100125.70
2023-02-11T21:39:55.347Z,100119.89
2023-02-11T21:42:24.321Z,100120.48
2023-02-11T21:44:56.299Z,100117.22
2023-02-11T21:47:26.239Z,100116.64
2023-02-11T21:49:57.751Z,100113.23
2023-02-11T21:52:31.691Z,100112.13
2023-02-11T21:55:02.086Z,100115.84
2023-02-11T21:57:31.635Z,100116.55
2023-02-11T22:00:01.680Z,100113.98
2023-02-11T22:02:31.120Z,100112.36
2023-02-11T22:05:00.584Z,100114.52
2023-02-11T22:07:30.124Z,100114.09
2023-02-11T22:10:07.315Z,100119.34
2023-02-11T22:12:37.945Z,100115.31
2023-02-11T22:15:08.054Z,100116.91
2023-02-11T22:17:37.496Z,100114.29
2023-02-11T22:20:09.024Z,100111.75
2023-02-11T22:22:40.625Z,100112.16
2023-02-11T22:25:10.196Z,100111.28
2023-02-11T22:27:41.334Z,100105.73
2023-02-11T22:30:11.600Z,100106.55
2023-02-11T22:32:44.119Z,100111.40
2023-02-11T22:35:13.498Z,100112.41
2023-02-11T22:37:45.251Z,100114.85
2023-02-11T22:40:14.776Z,100112.70
2023-02-11T22:42:46.535Z,100109.70
2023-02-11T22:45:16.163Z,100112.59
2023-02-11T22:47:46.347Z,100115.61
2023-02-11T22:50:16.993Z,100118.86
2023-02-11T22:52:48.664Z,100113.45
2023-02-11T22:55:18.064Z,100111.86
2023-02-11T22:57:47.656Z,100111.22
2023-02-11T23:00:19.274Z,100110.26
2023-02-11T23:02:48.481Z,100103.43
2023-02-11T23:05:20.280Z,100108.60
2023-02-11T23:07:52.147Z,100112.80
2023-02-11T23:10:22.136Z,100107.92
2023-02-11T23:12:51.908Z,100110.45
2023-02-11T23:15:22.049Z,100108.05
2023-02-11T23:17:53.144Z,100103.16
2023-02-11T23:20:23.276Z,100111.55
2023-02-11T23:22:52.954Z,100114.60
2023-02-11T23:25:23.096Z,100116.91
2023-02-11T23:27:56.203Z,100116.05
2023-02-11T23:30:26.685Z,100109.36
2023-02-11T23:32:56.539Z,100119.43
2023-02-11T23:35:26.325Z,100122.09
2023-02-11T23:37:57.425Z,100122.38
2023-02-11T23:40:27.223Z,100125.96
2023-02-11T23:42:58.667Z,100133.08
2023-02-11T23:45:29.067Z,100126.84
2023-02-11T23:48:00.161Z,100127.91
2023-02-11T23:50:31.342Z,100133.73
2023-02-11T23:53:00.882Z,100140.45
2023-02-11T23:55:40.587Z,100144.11
2023-02-11T23:58:11.625Z,100141.23
